sensor_id;sensor_type;location;lat;lon;timestamp;P1;durP1;ratioP1;P2;durP2;ratioP2
18574;SDS011;9417;16.484;102.872;2022-11-20T00:00:47;18.98;;;13.13;;
18574;SDS011;9417;16.484;102.872;2022-11-20T00:02:54;69.90;;;47.25;;
18574;SDS011;9417;16.484;102.872;2022-11-20T00:05:01;71.07;;;49.55;;
18574;SDS011;9417;16.484;102.872;2022-11-20T00:07:09;147.52;;;90.40;;
18574;SDS011;9417;16.484;102.872;2022-11-20T00:09:16;52.67;;;37.97;;
18574;SDS011;9417;16.484;102.872;2022-11-20T00:11:24;30.85;;;22.40;;
18574;SDS011;9417;16.484;102.872;2022-11-20T00:13:33;31.30;;;19.27;;
18574;SDS011;9417;16.484;102.872;2022-11-20T00:15:40;79.45;;;46.17;;
18574;SDS011;9417;16.484;102.872;2022-11-20T00:17:49;31.75;;;20.90;;
18574;SDS011;9417;16.484;102.872;2022-11-20T00:19:56;27.80;;;20.05;;
18574;SDS011;9417;16.484;102.872;2022-11-20T00:22:03;33.50;;;21.85;;
18574;SDS011;9417;16.484;102.872;2022-11-20T00:24:10;33.08;;;22.38;;
18574;SDS011;9417;16.484;102.872;2022-11-20T00:26:17;31.20;;;21.15;;
18574;SDS011;9417;16.484;102.872;2022-11-20T00:28:25;28.20;;;18.50;;
18574;SDS011;9417;16.484;102.872;2022-11-20T00:30:32;24.20;;;17.08;;
18574;SDS011;9417;16.484;102.872;2022-11-20T00:32:40;38.75;;;21.48;;
18574;SDS011;9417;16.484;102.872;2022-11-20T00:34:48;44.65;;;26.65;;
18574;SDS011;9417;16.484;102.872;2022-11-20T00:36:55;34.17;;;24.35;;
18574;SDS011;9417;16.484;102.872;2022-11-20T00:39:02;25.80;;;18.65;;
18574;SDS011;9417;16.484;102.872;2022-11-20T00:41:10;29.30;;;17.15;;
18574;SDS011;9417;16.484;102.872;2022-11-20T00:43:19;29.00;;;18.50;;
18574;SDS011;9417;16.484;102.872;2022-11-20T00:45:26;31.17;;;19.10;;
18574;SDS011;9417;16.484;102.872;2022-11-20T00:47:33;26.38;;;18.15;;
18574;SDS011;9417;16.484;102.872;2022-11-20T00:49:40;28.27;;;18.20;;
18574;SDS011;9417;16.484;102.872;2022-11-20T00:51:48;24.27;;;17.27;;
18574;SDS011;9417;16.484;102.872;2022-11-20T00:53:56;27.48;;;16.88;;
18574;SDS011;9417;16.484;102.872;2022-11-20T00:56:06;31.15;;;18.48;;
18574;SDS011;9417;16.484;102.872;2022-11-20T00:58:15;22.52;;;15.77;;
18574;SDS011;9417;16.484;102.872;2022-11-20T01:00:22;27.65;;;15.68;;
18574;SDS011;9417;16.484;102.872;2022-11-20T01:02:29;26.60;;;15.75;;
18574;SDS011;9417;16.484;102.872;2022-11-20T01:04:39;20.60;;;14.93;;
18574;SDS011;9417;16.484;102.872;2022-11-20T01:06:46;24.55;;;15.15;;
18574;SDS011;9417;16.484;102.872;2022-11-20T01:08:55;21.42;;;15.05;;
18574;SDS011;9417;16.484;102.872;2022-11-20T01:11:04;22.05;;;14.85;;
18574;SDS011;9417;16.484;102.872;2022-11-20T01:13:14;21.70;;;13.50;;
18574;SDS011;9417;16.484;102.872;2022-11-20T01:15:38;21.65;;;14.32;;
18574;SDS011;9417;16.484;102.872;2022-11-20T01:17:45;21.98;;;14.48;;
18574;SDS011;9417;16.484;102.872;2022-11-20T01:19:52;22.70;;;13.23;;
18574;SDS011;9417;16.484;102.872;2022-11-20T01:22:01;19.60;;;13.30;;
18574;SDS011;9417;16.484;102.872;2022-11-20T01:24:09;18.58;;;12.77;;
18574;SDS011;9417;16.484;102.872;2022-11-20T01:26:18;18.80;;;12.43;;
18574;SDS011;9417;16.484;102.872;2022-11-20T01:28:26;17.65;;;13.02;;
18574;SDS011;9417;16.484;102.872;2022-11-20T01:30:34;22.00;;;13.60;;
18574;SDS011;9417;16.484;102.872;2022-11-20T01:32:41;24.63;;;14.40;;
18574;SDS011;9417;16.484;102.872;2022-11-20T01:34:48;24.08;;;13.40;;
18574;SDS011;9417;16.484;102.872;2022-11-20T01:36:55;17.48;;;12.65;;
18574;SDS011;9417;16.484;102.872;2022-11-20T01:39:04;18.52;;;13.27;;
18574;SDS011;9417;16.484;102.872;2022-11-20T01:41:12;20.85;;;13.43;;
18574;SDS011;9417;16.484;102.872;2022-11-20T01:43:40;22.45;;;14.43;;
18574;SDS011;9417;16.484;102.872;2022-11-20T01:45:56;20.00;;;14.00;;
18574;SDS011;9417;16.484;102.872;2022-11-20T01:48:08;20.52;;;13.70;;
18574;SDS011;9417;16.484;102.872;2022-11-20T01:50:16;16.88;;;11.52;;
18574;SDS011;9417;16.484;102.872;2022-11-20T01:52:30;18.55;;;11.43;;
18574;SDS011;9417;16.484;102.872;2022-11-20T01:54:44;15.93;;;11.43;;
18574;SDS011;9417;16.484;102.872;2022-11-20T01:56:54;13.93;;;10.20;;
18574;SDS011;9417;16.484;102.872;2022-11-20T01:59:04;14.38;;;9.90;;
18574;SDS011;9417;16.484;102.872;2022-11-20T02:01:13;18.23;;;10.02;;
18574;SDS011;9417;16.484;102.872;2022-11-20T02:03:21;16.90;;;10.30;;
18574;SDS011;9417;16.484;102.872;2022-11-20T02:05:31;14.75;;;9.68;;
18574;SDS011;9417;16.484;102.872;2022-11-20T02:07:41;14.38;;;9.93;;
18574;SDS011;9417;16.484;102.872;2022-11-20T02:09:50;14.88;;;10.45;;
18574;SDS011;9417;16.484;102.872;2022-11-20T02:12:00;17.38;;;11.85;;
18574;SDS011;9417;16.484;102.872;2022-11-20T02:14:08;17.85;;;11.10;;
18574;SDS011;9417;16.484;102.872;2022-11-20T02:16:16;15.57;;;10.98;;
18574;SDS011;9417;16.484;102.872;2022-11-20T02:18:26;17.95;;;11.85;;
18574;SDS011;9417;16.484;102.872;2022-11-20T02:20:34;14.90;;;10.75;;
18574;SDS011;9417;16.484;102.872;2022-11-20T02:22:42;13.75;;;10.70;;
18574;SDS011;9417;16.484;102.872;2022-11-20T02:24:55;16.88;;;10.35;;
18574;SDS011;9417;16.484;102.872;2022-11-20T02:27:06;13.02;;;8.85;;
18574;SDS011;9417;16.484;102.872;2022-11-20T02:29:16;14.73;;;8.82;;
18574;SDS011;9417;16.484;102.872;2022-11-20T02:31:25;13.82;;;7.90;;
18574;SDS011;9417;16.484;102.872;2022-11-20T02:33:32;11.18;;;9.13;;
18574;SDS011;9417;16.484;102.872;2022-11-20T02:35:40;18.92;;;10.02;;
18574;SDS011;9417;16.484;102.872;2022-11-20T02:37:51;12.10;;;8.57;;
18574;SDS011;9417;16.484;102.872;2022-11-20T02:40:02;11.98;;;7.85;;
18574;SDS011;9417;16.484;102.872;2022-11-20T02:42:10;12.75;;;8.52;;
18574;SDS011;9417;16.484;102.872;2022-11-20T02:44:17;13.93;;;8.50;;
18574;SDS011;9417;16.484;102.872;2022-11-20T02:46:24;12.73;;;8.52;;
18574;SDS011;9417;16.484;102.872;2022-11-20T02:48:31;10.48;;;8.10;;
18574;SDS011;9417;16.484;102.872;2022-11-20T02:50:38;14.02;;;8.27;;
18574;SDS011;9417;16.484;102.872;2022-11-20T02:52:46;14.02;;;8.38;;
18574;SDS011;9417;16.484;102.872;2022-11-20T02:54:53;13.52;;;8.02;;
18574;SDS011;9417;16.484;102.872;2022-11-20T02:57:02;14.68;;;8.98;;
18574;SDS011;9417;16.484;102.872;2022-11-20T02:59:09;10.60;;;7.30;;
18574;SDS011;9417;16.484;102.872;2022-11-20T03:01:17;12.20;;;8.15;;
18574;SDS011;9417;16.484;102.872;2022-11-20T03:03:24;12.55;;;8.05;;
18574;SDS011;9417;16.484;102.872;2022-11-20T03:05:32;14.30;;;7.82;;
18574;SDS011;9417;16.484;102.872;2022-11-20T03:07:39;11.77;;;6.90;;
18574;SDS011;9417;16.484;102.872;2022-11-20T03:09:46;10.65;;;7.18;;
18574;SDS011;9417;16.484;102.872;2022-11-20T03:11:53;9.70;;;6.30;;
18574;SDS011;9417;16.484;102.872;2022-11-20T03:14:03;11.50;;;6.07;;
18574;SDS011;9417;16.484;102.872;2022-11-20T03:16:11;8.73;;;5.78;;
18574;SDS011;9417;16.484;102.872;2022-11-20T03:18:19;11.82;;;5.95;;
18574;SDS011;9417;16.484;102.872;2022-11-20T03:20:26;8.02;;;5.43;;
18574;SDS011;9417;16.484;102.872;2022-11-20T03:22:33;11.05;;;5.85;;
18574;SDS011;9417;16.484;102.872;2022-11-20T03:24:40;8.15;;;5.55;;
18574;SDS011;9417;16.484;102.872;2022-11-20T03:26:47;8.35;;;5.38;;
18574;SDS011;9417;16.484;102.872;2022-11-20T03:28:55;8.57;;;5.63;;
18574;SDS011;9417;16.484;102.872;2022-11-20T03:31:11;10.90;;;5.47;;
18574;SDS011;9417;16.484;102.872;2022-11-20T03:33:19;8.38;;;5.25;;
18574;SDS011;9417;16.484;102.872;2022-11-20T03:35:26;6.38;;;5.13;;
18574;SDS011;9417;16.484;102.872;2022-11-20T03:37:33;7.05;;;4.88;;
18574;SDS011;9417;16.484;102.872;2022-11-20T03:39:40;7.07;;;5.22;;
18574;SDS011;9417;16.484;102.872;2022-11-20T03:41:47;9.30;;;5.28;;
18574;SDS011;9417;16.484;102.872;2022-11-20T03:43:54;7.00;;;5.90;;
18574;SDS011;9417;16.484;102.872;2022-11-20T03:46:03;7.28;;;5.53;;
18574;SDS011;9417;16.484;102.872;2022-11-20T03:48:12;8.27;;;5.00;;
18574;SDS011;9417;16.484;102.872;2022-11-20T03:50:19;10.27;;;5.93;;
18574;SDS011;9417;16.484;102.872;2022-11-20T03:52:26;7.50;;;5.60;;
18574;SDS011;9417;16.484;102.872;2022-11-20T03:54:33;7.93;;;5.25;;
18574;SDS011;9417;16.484;102.872;2022-11-20T03:56:40;7.10;;;4.97;;
18574;SDS011;9417;16.484;102.872;2022-11-20T03:58:47;7.72;;;5.25;;
18574;SDS011;9417;16.484;102.872;2022-11-20T04:00:55;8.05;;;5.15;;
18574;SDS011;9417;16.484;102.872;2022-11-20T04:03:02;9.13;;;5.47;;
18574;SDS011;9417;16.484;102.872;2022-11-20T04:05:11;8.75;;;5.03;;
18574;SDS011;9417;16.484;102.872;2022-11-20T04:07:18;7.90;;;4.55;;
18574;SDS011;9417;16.484;102.872;2022-11-20T04:09:25;8.70;;;5.00;;
18574;SDS011;9417;16.484;102.872;2022-11-20T04:11:33;6.78;;;4.50;;
18574;SDS011;9417;16.484;102.872;2022-11-20T04:13:41;7.07;;;4.80;;
18574;SDS011;9417;16.484;102.872;2022-11-20T04:15:52;7.40;;;4.00;;
18574;SDS011;9417;16.484;102.872;2022-11-20T04:18:04;7.60;;;5.18;;
18574;SDS011;9417;16.484;102.872;2022-11-20T04:22:20;9.23;;;4.72;;
18574;SDS011;9417;16.484;102.872;2022-11-20T04:24:27;6.95;;;4.90;;
18574;SDS011;9417;16.484;102.872;2022-11-20T04:26:34;7.45;;;4.72;;
18574;SDS011;9417;16.484;102.872;2022-11-20T04:28:42;10.50;;;4.90;;
18574;SDS011;9417;16.484;102.872;2022-11-20T04:30:49;8.00;;;4.65;;
18574;SDS011;9417;16.484;102.872;2022-11-20T04:32:56;8.60;;;4.78;;
18574;SDS011;9417;16.484;102.872;2022-11-20T04:35:03;7.57;;;4.85;;
18574;SDS011;9417;16.484;102.872;2022-11-20T04:37:12;6.78;;;5.22;;
18574;SDS011;9417;16.484;102.872;2022-11-20T04:39:19;6.63;;;4.93;;
18574;SDS011;9417;16.484;102.872;2022-11-20T04:41:27;8.65;;;4.90;;
18574;SDS011;9417;16.484;102.872;2022-11-20T04:43:34;8.07;;;4.65;;
18574;SDS011;9417;16.484;102.872;2022-11-20T04:45:41;9.63;;;4.90;;
18574;SDS011;9417;16.484;102.872;2022-11-20T04:47:48;7.63;;;4.70;;
18574;SDS011;9417;16.484;102.872;2022-11-20T04:49:56;7.45;;;4.70;;
18574;SDS011;9417;16.484;102.872;2022-11-20T04:52:04;7.85;;;4.53;;
18574;SDS011;9417;16.484;102.872;2022-11-20T04:54:13;9.57;;;4.70;;
18574;SDS011;9417;16.484;102.872;2022-11-20T04:56:20;7.50;;;4.80;;
18574;SDS011;9417;16.484;102.872;2022-11-20T04:58:27;7.40;;;4.57;;
18574;SDS011;9417;16.484;102.872;2022-11-20T05:00:35;7.30;;;5.57;;
18574;SDS011;9417;16.484;102.872;2022-11-20T05:02:42;6.88;;;4.35;;
18574;SDS011;9417;16.484;102.872;2022-11-20T05:04:49;6.95;;;4.63;;
18574;SDS011;9417;16.484;102.872;2022-11-20T05:06:56;7.90;;;4.70;;
18574;SDS011;9417;16.484;102.872;2022-11-20T05:09:04;9.63;;;5.65;;
18574;SDS011;9417;16.484;102.872;2022-11-20T05:11:13;9.23;;;4.60;;
18574;SDS011;9417;16.484;102.872;2022-11-20T05:13:21;7.60;;;4.45;;
18574;SDS011;9417;16.484;102.872;2022-11-20T05:15:28;6.22;;;4.43;;
18574;SDS011;9417;16.484;102.872;2022-11-20T05:17:36;7.68;;;4.18;;
18574;SDS011;9417;16.484;102.872;2022-11-20T05:19:43;8.43;;;5.40;;
18574;SDS011;9417;16.484;102.872;2022-11-20T05:24:01;5.68;;;4.60;;
18574;SDS011;9417;16.484;102.872;2022-11-20T05:26:08;6.35;;;4.88;;
18574;SDS011;9417;16.484;102.872;2022-11-20T05:28:22;6.18;;;4.63;;
18574;SDS011;9417;16.484;102.872;2022-11-20T05:30:29;7.07;;;5.43;;
18574;SDS011;9417;16.484;102.872;2022-11-20T05:32:37;6.65;;;4.38;;
18574;SDS011;9417;16.484;102.872;2022-11-20T05:34:44;9.00;;;6.10;;
18574;SDS011;9417;16.484;102.872;2022-11-20T05:36:51;12.15;;;6.72;;
18574;SDS011;9417;16.484;102.872;2022-11-20T05:38:58;7.45;;;4.97;;
18574;SDS011;9417;16.484;102.872;2022-11-20T05:41:05;9.55;;;4.57;;
18574;SDS011;9417;16.484;102.872;2022-11-20T05:43:15;6.43;;;3.92;;
18574;SDS011;9417;16.484;102.872;2022-11-20T05:45:22;6.57;;;4.05;;
18574;SDS011;9417;16.484;102.872;2022-11-20T05:47:31;6.57;;;4.50;;
18574;SDS011;9417;16.484;102.872;2022-11-20T05:49:39;6.55;;;5.30;;
18574;SDS011;9417;16.484;102.872;2022-11-20T05:51:46;5.75;;;4.07;;
18574;SDS011;9417;16.484;102.872;2022-11-20T05:53:53;5.85;;;4.40;;
18574;SDS011;9417;16.484;102.872;2022-11-20T05:56:03;6.55;;;4.30;;
18574;SDS011;9417;16.484;102.872;2022-11-20T05:58:11;6.32;;;4.13;;
18574;SDS011;9417;16.484;102.872;2022-11-20T06:00:20;9.48;;;4.40;;
18574;SDS011;9417;16.484;102.872;2022-11-20T06:02:27;7.78;;;4.13;;
18574;SDS011;9417;16.484;102.872;2022-11-20T06:04:34;5.90;;;4.75;;
18574;SDS011;9417;16.484;102.872;2022-11-20T06:06:41;6.07;;;4.35;;
18574;SDS011;9417;16.484;102.872;2022-11-20T06:08:48;7.28;;;4.50;;
18574;SDS011;9417;16.484;102.872;2022-11-20T06:10:55;6.63;;;4.10;;
18574;SDS011;9417;16.484;102.872;2022-11-20T06:13:02;6.45;;;4.53;;
18574;SDS011;9417;16.484;102.872;2022-11-20T06:15:10;5.72;;;4.47;;
18574;SDS011;9417;16.484;102.872;2022-11-20T06:17:19;6.90;;;4.35;;
18574;SDS011;9417;16.484;102.872;2022-11-20T06:19:26;8.73;;;4.45;;
18574;SDS011;9417;16.484;102.872;2022-11-20T06:21:33;6.57;;;4.38;;
18574;SDS011;9417;16.484;102.872;2022-11-20T06:23:40;7.15;;;4.93;;
18574;SDS011;9417;16.484;102.872;2022-11-20T06:25:48;6.93;;;5.18;;
18574;SDS011;9417;16.484;102.872;2022-11-20T06:27:55;6.28;;;4.95;;
18574;SDS011;9417;16.484;102.872;2022-11-20T06:30:02;6.95;;;4.72;;
18574;SDS011;9417;16.484;102.872;2022-11-20T06:32:10;6.45;;;4.57;;
18574;SDS011;9417;16.484;102.872;2022-11-20T06:34:19;6.55;;;4.70;;
18574;SDS011;9417;16.484;102.872;2022-11-20T06:36:26;8.45;;;5.07;;
18574;SDS011;9417;16.484;102.872;2022-11-20T06:38:33;4.93;;;4.30;;
18574;SDS011;9417;16.484;102.872;2022-11-20T06:40:40;9.13;;;4.97;;
18574;SDS011;9417;16.484;102.872;2022-11-20T06:42:48;6.22;;;4.60;;
18574;SDS011;9417;16.484;102.872;2022-11-20T06:44:55;7.43;;;4.45;;
18574;SDS011;9417;16.484;102.872;2022-11-20T06:47:02;6.30;;;4.32;;
18574;SDS011;9417;16.484;102.872;2022-11-20T06:49:10;6.65;;;4.30;;
18574;SDS011;9417;16.484;102.872;2022-11-20T06:51:18;6.60;;;5.03;;
18574;SDS011;9417;16.484;102.872;2022-11-20T06:53:26;5.72;;;4.85;;
18574;SDS011;9417;16.484;102.872;2022-11-20T06:55:33;8.85;;;4.97;;
18574;SDS011;9417;16.484;102.872;2022-11-20T06:57:40;6.97;;;5.30;;
18574;SDS011;9417;16.484;102.872;2022-11-20T06:59:47;6.55;;;5.20;;
18574;SDS011;9417;16.484;102.872;2022-11-20T07:01:54;7.32;;;4.88;;
18574;SDS011;9417;16.484;102.872;2022-11-20T07:04:01;7.60;;;5.15;;
18574;SDS011;9417;16.484;102.872;2022-11-20T07:06:08;6.10;;;4.75;;
18574;SDS011;9417;16.484;102.872;2022-11-20T07:08:17;8.45;;;4.57;;
18574;SDS011;9417;16.484;102.872;2022-11-20T07:10:24;7.80;;;4.93;;
18574;SDS011;9417;16.484;102.872;2022-11-20T07:12:31;8.27;;;4.43;;
18574;SDS011;9417;16.484;102.872;2022-11-20T07:14:38;6.60;;;4.20;;
18574;SDS011;9417;16.484;102.872;2022-11-20T07:16:45;6.38;;;4.55;;
18574;SDS011;9417;16.484;102.872;2022-11-20T07:18:53;7.30;;;5.00;;
18574;SDS011;9417;16.484;102.872;2022-11-20T07:21:00;7.68;;;4.18;;
18574;SDS011;9417;16.484;102.872;2022-11-20T07:23:07;5.38;;;3.83;;
18574;SDS011;9417;16.484;102.872;2022-11-20T07:25:16;6.95;;;3.85;;
18574;SDS011;9417;16.484;102.872;2022-11-20T07:27:24;5.88;;;3.30;;
18574;SDS011;9417;16.484;102.872;2022-11-20T07:29:30;9.07;;;4.15;;
18574;SDS011;9417;16.484;102.872;2022-11-20T07:31:38;5.57;;;3.42;;
18574;SDS011;9417;16.484;102.872;2022-11-20T07:33:44;5.25;;;3.80;;
18574;SDS011;9417;16.484;102.872;2022-11-20T07:35:52;7.88;;;3.97;;
18574;SDS011;9417;16.484;102.872;2022-11-20T07:37:58;6.65;;;3.40;;
18574;SDS011;9417;16.484;102.872;2022-11-20T07:40:06;6.72;;;3.58;;
18574;SDS011;9417;16.484;102.872;2022-11-20T07:42:15;5.55;;;3.17;;
18574;SDS011;9417;16.484;102.872;2022-11-20T07:44:25;5.35;;;3.63;;
18574;SDS011;9417;16.484;102.872;2022-11-20T07:46:32;6.88;;;3.53;;
18574;SDS011;9417;16.484;102.872;2022-11-20T07:48:39;5.45;;;3.55;;
18574;SDS011;9417;16.484;102.872;2022-11-20T07:50:46;9.77;;;4.03;;
18574;SDS011;9417;16.484;102.872;2022-11-20T07:52:59;5.75;;;3.90;;
18574;SDS011;9417;16.484;102.872;2022-11-20T07:55:08;6.22;;;3.95;;
18574;SDS011;9417;16.484;102.872;2022-11-20T07:57:17;5.07;;;3.70;;
18574;SDS011;9417;16.484;102.872;2022-11-20T07:59:29;6.20;;;3.83;;
18574;SDS011;9417;16.484;102.872;2022-11-20T08:01:36;6.38;;;3.75;;
18574;SDS011;9417;16.484;102.872;2022-11-20T08:03:44;7.00;;;3.60;;
18574;SDS011;9417;16.484;102.872;2022-11-20T08:05:51;7.20;;;3.63;;
18574;SDS011;9417;16.484;102.872;2022-11-20T08:07:58;7.68;;;4.13;;
18574;SDS011;9417;16.484;102.872;2022-11-20T08:10:06;8.75;;;3.78;;
18574;SDS011;9417;16.484;102.872;2022-11-20T08:12:19;5.18;;;3.85;;
18574;SDS011;9417;16.484;102.872;2022-11-20T08:14:43;5.50;;;3.75;;
18574;SDS011;9417;16.484;102.872;2022-11-20T08:16:50;6.38;;;3.47;;
18574;SDS011;9417;16.484;102.872;2022-11-20T08:18:57;6.18;;;3.80;;
18574;SDS011;9417;16.484;102.872;2022-11-20T08:21:04;6.35;;;3.63;;
18574;SDS011;9417;16.484;102.872;2022-11-20T08:23:12;4.50;;;3.33;;
18574;SDS011;9417;16.484;102.872;2022-11-20T08:25:19;4.85;;;3.30;;
18574;SDS011;9417;16.484;102.872;2022-11-20T08:27:28;5.30;;;3.70;;
18574;SDS011;9417;16.484;102.872;2022-11-20T08:29:40;6.68;;;3.65;;
18574;SDS011;9417;16.484;102.872;2022-11-20T08:31:47;5.55;;;3.78;;
18574;SDS011;9417;16.484;102.872;2022-11-20T08:33:54;5.53;;;3.65;;
18574;SDS011;9417;16.484;102.872;2022-11-20T08:36:02;6.88;;;3.55;;
18574;SDS011;9417;16.484;102.872;2022-11-20T08:38:10;5.88;;;4.13;;
18574;SDS011;9417;16.484;102.872;2022-11-20T08:40:17;7.07;;;4.88;;
18574;SDS011;9417;16.484;102.872;2022-11-20T08:42:24;5.70;;;4.53;;
18574;SDS011;9417;16.484;102.872;2022-11-20T08:44:33;9.57;;;7.30;;
18574;SDS011;9417;16.484;102.872;2022-11-20T08:46:40;8.80;;;7.00;;
18574;SDS011;9417;16.484;102.872;2022-11-20T08:48:49;25.05;;;18.70;;
18574;SDS011;9417;16.484;102.872;2022-11-20T08:50:57;21.40;;;16.15;;
18574;SDS011;9417;16.484;102.872;2022-11-20T08:53:05;16.27;;;10.93;;
18574;SDS011;9417;16.484;102.872;2022-11-20T08:55:12;17.52;;;7.03;;
18574;SDS011;9417;16.484;102.872;2022-11-20T08:57:19;11.00;;;5.53;;
18574;SDS011;9417;16.484;102.872;2022-11-20T08:59:27;9.25;;;5.43;;
18574;SDS011;9417;16.484;102.872;2022-11-20T09:01:56;10.60;;;5.65;;
18574;SDS011;9417;16.484;102.872;2022-11-20T09:04:03;6.35;;;4.18;;
18574;SDS011;9417;16.484;102.872;2022-11-20T09:06:10;7.28;;;4.75;;
18574;SDS011;9417;16.484;102.872;2022-11-20T09:08:17;7.70;;;4.32;;
18574;SDS011;9417;16.484;102.872;2022-11-20T09:10:24;5.88;;;4.35;;
18574;SDS011;9417;16.484;102.872;2022-11-20T09:12:31;6.47;;;4.50;;
18574;SDS011;9417;16.484;102.872;2022-11-20T09:14:38;6.53;;;4.55;;
18574;SDS011;9417;16.484;102.872;2022-11-20T09:16:45;7.35;;;5.35;;
18574;SDS011;9417;16.484;102.872;2022-11-20T09:18:54;8.35;;;5.15;;
18574;SDS011;9417;16.484;102.872;2022-11-20T09:21:21;8.50;;;4.88;;
18574;SDS011;9417;16.484;102.872;2022-11-20T09:23:31;8.07;;;4.60;;
18574;SDS011;9417;16.484;102.872;2022-11-20T09:25:39;5.72;;;4.15;;
18574;SDS011;9417;16.484;102.872;2022-11-20T09:27:46;7.38;;;4.82;;
18574;SDS011;9417;16.484;102.872;2022-11-20T09:29:53;8.20;;;5.32;;
18574;SDS011;9417;16.484;102.872;2022-11-20T09:32:00;10.98;;;6.75;;
18574;SDS011;9417;16.484;102.872;2022-11-20T09:34:09;9.02;;;6.30;;
18574;SDS011;9417;16.484;102.872;2022-11-20T09:36:16;10.43;;;5.95;;
18574;SDS011;9417;16.484;102.872;2022-11-20T09:38:23;10.98;;;5.97;;
18574;SDS011;9417;16.484;102.872;2022-11-20T09:40:31;9.98;;;5.30;;
18574;SDS011;9417;16.484;102.872;2022-11-20T09:42:40;7.72;;;5.15;;
18574;SDS011;9417;16.484;102.872;2022-11-20T09:47:30;7.25;;;4.55;;
18574;SDS011;9417;16.484;102.872;2022-11-20T09:49:52;7.80;;;4.70;;
18574;SDS011;9417;16.484;102.872;2022-11-20T09:52:14;8.73;;;4.72;;
18574;SDS011;9417;16.484;102.872;2022-11-20T09:54:29;9.38;;;6.25;;
18574;SDS011;9417;16.484;102.872;2022-11-20T09:56:39;10.73;;;6.97;;
18574;SDS011;9417;16.484;102.872;2022-11-20T09:58:49;9.95;;;6.18;;
18574;SDS011;9417;16.484;102.872;2022-11-20T10:00:59;8.88;;;5.90;;
18574;SDS011;9417;16.484;102.872;2022-11-20T10:03:16;10.30;;;6.78;;
18574;SDS011;9417;16.484;102.872;2022-11-20T10:05:31;10.30;;;5.93;;
18574;SDS011;9417;16.484;102.872;2022-11-20T10:07:47;9.63;;;6.32;;
18574;SDS011;9417;16.484;102.872;2022-11-20T10:10:00;14.15;;;6.75;;
18574;SDS011;9417;16.484;102.872;2022-11-20T10:12:12;11.88;;;7.07;;
18574;SDS011;9417;16.484;102.872;2022-11-20T10:14:26;13.73;;;7.70;;
18574;SDS011;9417;16.484;102.872;2022-11-20T10:16:57;13.48;;;7.30;;
18574;SDS011;9417;16.484;102.872;2022-11-20T10:19:32;14.13;;;7.40;;
18574;SDS011;9417;16.484;102.872;2022-11-20T10:21:57;14.20;;;8.07;;
18574;SDS011;9417;16.484;102.872;2022-11-20T10:24:23;12.93;;;7.95;;
18574;SDS011;9417;16.484;102.872;2022-11-20T10:26:53;14.95;;;8.50;;
18574;SDS011;9417;16.484;102.872;2022-11-20T10:29:10;14.52;;;8.90;;
18574;SDS011;9417;16.484;102.872;2022-11-20T10:31:23;13.50;;;8.13;;
18574;SDS011;9417;16.484;102.872;2022-11-20T10:33:35;16.25;;;6.90;;
18574;SDS011;9417;16.484;102.872;2022-11-20T10:36:08;13.13;;;6.63;;
18574;SDS011;9417;16.484;102.872;2022-11-20T10:38:29;9.80;;;6.30;;
18574;SDS011;9417;16.484;102.872;2022-11-20T10:40:43;10.35;;;5.63;;
18574;SDS011;9417;16.484;102.872;2022-11-20T10:42:52;9.73;;;6.22;;
18574;SDS011;9417;16.484;102.872;2022-11-20T10:45:04;13.70;;;6.55;;
18574;SDS011;9417;16.484;102.872;2022-11-20T10:47:21;10.55;;;6.70;;
18574;SDS011;9417;16.484;102.872;2022-11-20T10:49:28;11.60;;;6.72;;
18574;SDS011;9417;16.484;102.872;2022-11-20T10:51:37;10.55;;;7.13;;
18574;SDS011;9417;16.484;102.872;2022-11-20T10:53:57;12.80;;;7.03;;
18574;SDS011;9417;16.484;102.872;2022-11-20T10:56:09;13.25;;;7.20;;
18574;SDS011;9417;16.484;102.872;2022-11-20T10:58:25;10.52;;;6.93;;
18574;SDS011;9417;16.484;102.872;2022-11-20T11:00:36;9.55;;;6.35;;
18574;SDS011;9417;16.484;102.872;2022-11-20T11:02:44;12.82;;;6.95;;
18574;SDS011;9417;16.484;102.872;2022-11-20T11:04:53;8.93;;;6.63;;
18574;SDS011;9417;16.484;102.872;2022-11-20T11:07:04;13.30;;;6.68;;
18574;SDS011;9417;16.484;102.872;2022-11-20T11:09:17;9.93;;;6.00;;
18574;SDS011;9417;16.484;102.872;2022-11-20T11:11:34;10.02;;;6.47;;
18574;SDS011;9417;16.484;102.872;2022-11-20T11:13:44;9.50;;;6.30;;
18574;SDS011;9417;16.484;102.872;2022-11-20T11:15:51;11.07;;;6.72;;
18574;SDS011;9417;16.484;102.872;2022-11-20T11:17:59;12.13;;;7.03;;
18574;SDS011;9417;16.484;102.872;2022-11-20T11:20:07;11.65;;;6.93;;
18574;SDS011;9417;16.484;102.872;2022-11-20T11:22:22;13.95;;;7.20;;
18574;SDS011;9417;16.484;102.872;2022-11-20T11:24:30;10.32;;;6.20;;
18574;SDS011;9417;16.484;102.872;2022-11-20T11:26:50;9.27;;;6.38;;
18574;SDS011;9417;16.484;102.872;2022-11-20T11:29:03;11.35;;;6.40;;
18574;SDS011;9417;16.484;102.872;2022-11-20T11:31:10;17.02;;;7.22;;
18574;SDS011;9417;16.484;102.872;2022-11-20T11:33:29;15.20;;;8.15;;
18574;SDS011;9417;16.484;102.872;2022-11-20T11:35:44;15.93;;;8.13;;
18574;SDS011;9417;16.484;102.872;2022-11-20T11:37:53;14.00;;;8.38;;
18574;SDS011;9417;16.484;102.872;2022-11-20T11:40:12;19.98;;;8.57;;
18574;SDS011;9417;16.484;102.872;2022-11-20T11:42:27;17.50;;;9.32;;
18574;SDS011;9417;16.484;102.872;2022-11-20T11:44:35;20.45;;;9.05;;
18574;SDS011;9417;16.484;102.872;2022-11-20T11:46:59;35.03;;;9.95;;
18574;SDS011;9417;16.484;102.872;2022-11-20T11:49:15;18.63;;;9.52;;
18574;SDS011;9417;16.484;102.872;2022-11-20T11:51:25;27.73;;;12.23;;
18574;SDS011;9417;16.484;102.872;2022-11-20T11:53:36;24.65;;;11.73;;
18574;SDS011;9417;16.484;102.872;2022-11-20T11:55:49;35.60;;;15.57;;
18574;SDS011;9417;16.484;102.872;2022-11-20T11:58:06;36.55;;;16.58;;
18574;SDS011;9417;16.484;102.872;2022-11-20T12:00:20;39.35;;;17.27;;
18574;SDS011;9417;16.484;102.872;2022-11-20T12:02:31;43.90;;;21.30;;
18574;SDS011;9417;16.484;102.872;2022-11-20T12:04:43;42.03;;;22.00;;
18574;SDS011;9417;16.484;102.872;2022-11-20T12:06:57;34.85;;;18.42;;
18574;SDS011;9417;16.484;102.872;2022-11-20T12:09:32;34.25;;;16.33;;
18574;SDS011;9417;16.484;102.872;2022-11-20T12:11:45;25.55;;;14.48;;
18574;SDS011;9417;16.484;102.872;2022-11-20T12:13:55;27.15;;;13.15;;
18574;SDS011;9417;16.484;102.872;2022-11-20T12:16:09;23.48;;;13.43;;
18574;SDS011;9417;16.484;102.872;2022-11-20T12:18:19;22.20;;;12.20;;
18574;SDS011;9417;16.484;102.872;2022-11-20T12:20:28;21.67;;;11.40;;
18574;SDS011;9417;16.484;102.872;2022-11-20T12:22:43;21.05;;;11.57;;
18574;SDS011;9417;16.484;102.872;2022-11-20T12:24:57;19.40;;;11.10;;
18574;SDS011;9417;16.484;102.872;2022-11-20T12:27:16;22.83;;;11.50;;
18574;SDS011;9417;16.484;102.872;2022-11-20T12:29:48;21.42;;;10.52;;
18574;SDS011;9417;16.484;102.872;2022-11-20T12:32:03;17.23;;;10.43;;
18574;SDS011;9417;16.484;102.872;2022-11-20T12:34:43;17.63;;;9.93;;
18574;SDS011;9417;16.484;102.872;2022-11-20T12:37:00;19.73;;;10.95;;
18574;SDS011;9417;16.484;102.872;2022-11-20T12:39:25;20.77;;;12.35;;
18574;SDS011;9417;16.484;102.872;2022-11-20T12:41:43;30.20;;;18.48;;
18574;SDS011;9417;16.484;102.872;2022-11-20T12:44:37;34.75;;;19.73;;
18574;SDS011;9417;16.484;102.872;2022-11-20T12:47:17;39.03;;;19.52;;
18574;SDS011;9417;16.484;102.872;2022-11-20T12:49:31;37.47;;;19.90;;